sensor_id;sensor_type;location;lat;lon;timestamp;temperature;humidity
2407;DHT22;37709;53.480;9.688;2023-08-31T00:01:51;11.40;99.90
2407;DHT22;37709;53.480;9.688;2023-08-31T00:04:20;11.40;99.90
2407;DHT22;37709;53.480;9.688;2023-08-31T00:06:49;11.40;99.90
2407;DHT22;37709;53.480;9.688;2023-08-31T00:09:18;11.30;99.90
2407;DHT22;37709;53.480;9.688;2023-08-31T00:11:46;11.20;99.90
2407;DHT22;37709;53.480;9.688;2023-08-31T00:14:14;11.20;99.90
2407;DHT22;37709;53.480;9.688;2023-08-31T00:16:42;11.20;99.90
2407;DHT22;37709;53.480;9.688;2023-08-31T00:19:10;11.20;99.90
2407;DHT22;37709;53.480;9.688;2023-08-31T00:21:39;11.10;99.90
2407;DHT22;37709;53.480;9.688;2023-08-31T00:24:06;11.10;99.90
2407;DHT22;37709;53.480;9.688;2023-08-31T00:26:35;11.20;99.90
2407;DHT22;37709;53.480;9.688;2023-08-31T00:29:07;11.00;99.90
2407;DHT22;37709;53.480;9.688;2023-08-31T00:31:37;11.10;99.90
2407;DHT22;37709;53.480;9.688;2023-08-31T00:34:06;11.10;99.90
2407;DHT22;37709;53.480;9.688;2023-08-31T00:36:36;11.10;99.90
2407;DHT22;37709;53.480;9.688;2023-08-31T00:39:07;11.10;99.90
2407;DHT22;37709;53.480;9.688;2023-08-31T00:41:39;11.10;99.90
2407;DHT22;37709;53.480;9.688;2023-08-31T00:44:07;11.00;99.90
2407;DHT22;37709;53.480;9.688;2023-08-31T00:46:34;11.00;99.90
2407;DHT22;37709;53.480;9.688;2023-08-31T00:49:02;10.90;99.90
2407;DHT22;37709;53.480;9.688;2023-08-31T00:51:32;10.90;99.90
2407;DHT22;37709;53.480;9.688;2023-08-31T00:53:59;11.00;99.90
2407;DHT22;37709;53.480;9.688;2023-08-31T00:56:31;10.90;99.90
2407;DHT22;37709;53.480;9.688;2023-08-31T00:58:59;10.80;99.90
2407;DHT22;37709;53.480;9.688;2023-08-31T01:01:37;10.80;99.90
2407;DHT22;37709;53.480;9.688;2023-08-31T01:04:20;10.80;99.90
2407;DHT22;37709;53.480;9.688;2023-08-31T01:10:31;10.80;99.90
2407;DHT22;37709;53.480;9.688;2023-08-31T01:13:07;10.80;99.90
2407;DHT22;37709;53.480;9.688;2023-08-31T01:15:45;10.70;99.90
2407;DHT22;37709;53.480;9.688;2023-08-31T01:18:17;10.60;99.90
2407;DHT22;37709;53.480;9.688;2023-08-31T01:23:59;10.70;99.90
2407;DHT22;37709;53.480;9.688;2023-08-31T01:26:27;10.60;99.90
2407;DHT22;37709;53.480;9.688;2023-08-31T01:28:56;10.70;99.90
2407;DHT22;37709;53.480;9.688;2023-08-31T01:31:24;10.70;99.90
2407;DHT22;37709;53.480;9.688;2023-08-31T01:33:52;10.60;99.90
2407;DHT22;37709;53.480;9.688;2023-08-31T01:36:48;10.80;99.90
2407;DHT22;37709;53.480;9.688;2023-08-31T01:39:26;10.80;99.90
2407;DHT22;37709;53.480;9.688;2023-08-31T01:41:58;10.70;99.90
2407;DHT22;37709;53.480;9.688;2023-08-31T01:44:34;10.60;99.90
2407;DHT22;37709;53.480;9.688;2023-08-31T01:47:05;10.70;99.90
2407;DHT22;37709;53.480;9.688;2023-08-31T01:49:37;10.70;99.90
2407;DHT22;37709;53.480;9.688;2023-08-31T01:52:06;10.60;99.90
2407;DHT22;37709;53.480;9.688;2023-08-31T01:54:33;10.60;99.90
2407;DHT22;37709;53.480;9.688;2023-08-31T01:57:01;10.60;99.90
2407;DHT22;37709;53.480;9.688;2023-08-31T01:59:30;10.60;99.90
2407;DHT22;37709;53.480;9.688;2023-08-31T02:01:59;10.70;99.90
2407;DHT22;37709;53.480;9.688;2023-08-31T02:04:26;10.60;99.90
2407;DHT22;37709;53.480;9.688;2023-08-31T02:06:57;10.50;99.90
2407;DHT22;37709;53.480;9.688;2023-08-31T02:09:25;10.40;99.90
2407;DHT22;37709;53.480;9.688;2023-08-31T02:11:52;10.50;99.90
2407;DHT22;37709;53.480;9.688;2023-08-31T02:14:23;10.40;99.90
2407;DHT22;37709;53.480;9.688;2023-08-31T02:16:52;10.30;99.90
2407;DHT22;37709;53.480;9.688;2023-08-31T02:19:21;10.30;99.90
2407;DHT22;37709;53.480;9.688;2023-08-31T02:21:51;10.30;99.90
2407;DHT22;37709;53.480;9.688;2023-08-31T02:24:19;10.30;99.90
2407;DHT22;37709;53.480;9.688;2023-08-31T02:26:49;10.20;99.90
2407;DHT22;37709;53.480;9.688;2023-08-31T02:29:18;10.20;99.90
2407;DHT22;37709;53.480;9.688;2023-08-31T02:31:45;10.10;99.90
2407;DHT22;37709;53.480;9.688;2023-08-31T02:34:17;10.10;99.90
2407;DHT22;37709;53.480;9.688;2023-08-31T02:36:45;10.00;99.90
2407;DHT22;37709;53.480;9.688;2023-08-31T02:39:15;10.00;99.90
2407;DHT22;37709;53.480;9.688;2023-08-31T02:41:43;10.00;99.90
2407;DHT22;37709;53.480;9.688;2023-08-31T02:44:11;10.00;99.90
2407;DHT22;37709;53.480;9.688;2023-08-31T02:46:40;10.00;99.90
2407;DHT22;37709;53.480;9.688;2023-08-31T02:49:07;10.00;99.90
2407;DHT22;37709;53.480;9.688;2023-08-31T02:51:35;10.00;99.90
2407;DHT22;37709;53.480;9.688;2023-08-31T02:54:03;10.00;99.90
2407;DHT22;37709;53.480;9.688;2023-08-31T02:56:32;9.90;99.90
2407;DHT22;37709;53.480;9.688;2023-08-31T02:58:59;9.90;99.90
2407;DHT22;37709;53.480;9.688;2023-08-31T03:01:26;9.90;99.90
2407;DHT22;37709;53.480;9.688;2023-08-31T03:03:54;9.80;99.90
2407;DHT22;37709;53.480;9.688;2023-08-31T03:06:23;9.80;99.90
2407;DHT22;37709;53.480;9.688;2023-08-31T03:08:50;9.80;99.90
2407;DHT22;37709;53.480;9.688;2023-08-31T03:11:19;9.80;99.90
2407;DHT22;37709;53.480;9.688;2023-08-31T03:13:47;9.70;99.90
2407;DHT22;37709;53.480;9.688;2023-08-31T03:16:16;9.60;99.90
2407;DHT22;37709;53.480;9.688;2023-08-31T03:18:48;9.70;99.90
2407;DHT22;37709;53.480;9.688;2023-08-31T03:21:16;9.60;99.90
2407;DHT22;37709;53.480;9.688;2023-08-31T03:23:44;9.60;99.90
2407;DHT22;37709;53.480;9.688;2023-08-31T03:26:12;9.50;99.90
2407;DHT22;37709;53.480;9.688;2023-08-31T03:28:40;9.40;99.90
2407;DHT22;37709;53.480;9.688;2023-08-31T03:31:08;9.40;99.90
2407;DHT22;37709;53.480;9.688;2023-08-31T03:33:35;9.40;99.90
2407;DHT22;37709;53.480;9.688;2023-08-31T03:36:07;9.40;99.90
2407;DHT22;37709;53.480;9.688;2023-08-31T03:38:34;9.50;99.90
2407;DHT22;37709;53.480;9.688;2023-08-31T03:41:06;9.50;99.90
2407;DHT22;37709;53.480;9.688;2023-08-31T03:43:34;9.50;99.90
2407;DHT22;37709;53.480;9.688;2023-08-31T03:46:02;9.50;99.90
2407;DHT22;37709;53.480;9.688;2023-08-31T03:48:30;9.50;99.90
2407;DHT22;37709;53.480;9.688;2023-08-31T03:51:00;9.50;99.90
2407;DHT22;37709;53.480;9.688;2023-08-31T03:53:28;9.50;99.90
2407;DHT22;37709;53.480;9.688;2023-08-31T03:55:58;9.40;99.90
2407;DHT22;37709;53.480;9.688;2023-08-31T03:58:25;9.40;99.90
2407;DHT22;37709;53.480;9.688;2023-08-31T04:00:54;9.40;99.90
2407;DHT22;37709;53.480;9.688;2023-08-31T04:03:21;9.40;99.90
2407;DHT22;37709;53.480;9.688;2023-08-31T04:05:54;9.40;99.90
2407;DHT22;37709;53.480;9.688;2023-08-31T04:08:23;9.30;99.90
2407;DHT22;37709;53.480;9.688;2023-08-31T04:10:53;9.40;99.90
2407;DHT22;37709;53.480;9.688;2023-08-31T04:13:46;9.40;99.90
2407;DHT22;37709;53.480;9.688;2023-08-31T04:16:14;9.30;99.90
2407;DHT22;37709;53.480;9.688;2023-08-31T04:18:42;9.30;99.90
2407;DHT22;37709;53.480;9.688;2023-08-31T04:21:12;9.20;99.90
2407;DHT22;37709;53.480;9.688;2023-08-31T04:23:40;9.20;99.90
2407;DHT22;37709;53.480;9.688;2023-08-31T04:26:11;9.30;99.90
2407;DHT22;37709;53.480;9.688;2023-08-31T04:28:40;9.30;99.90
2407;DHT22;37709;53.480;9.688;2023-08-31T04:31:11;9.20;99.90
2407;DHT22;37709;53.480;9.688;2023-08-31T04:33:39;9.20;99.90
2407;DHT22;37709;53.480;9.688;2023-08-31T04:36:08;9.10;99.90
2407;DHT22;37709;53.480;9.688;2023-08-31T04:39:00;9.20;99.90
2407;DHT22;37709;53.480;9.688;2023-08-31T04:41:33;9.20;99.90
2407;DHT22;37709;53.480;9.688;2023-08-31T04:44:02;9.20;99.90
2407;DHT22;37709;53.480;9.688;2023-08-31T04:46:30;9.10;99.90
2407;DHT22;37709;53.480;9.688;2023-08-31T04:48:58;9.20;99.90
2407;DHT22;37709;53.480;9.688;2023-08-31T04:51:37;9.20;99.90
2407;DHT22;37709;53.480;9.688;2023-08-31T04:54:10;9.10;99.90
2407;DHT22;37709;53.480;9.688;2023-08-31T04:56:40;9.20;99.90
2407;DHT22;37709;53.480;9.688;2023-08-31T04:59:07;9.20;99.90
2407;DHT22;37709;53.480;9.688;2023-08-31T05:01:37;9.20;99.90
2407;DHT22;37709;53.480;9.688;2023-08-31T05:04:04;9.10;99.90
2407;DHT22;37709;53.480;9.688;2023-08-31T05:06:38;9.30;99.90
2407;DHT22;37709;53.480;9.688;2023-08-31T05:09:06;9.40;99.90
2407;DHT22;37709;53.480;9.688;2023-08-31T05:11:34;9.40;99.90
2407;DHT22;37709;53.480;9.688;2023-08-31T05:14:05;9.40;99.90
2407;DHT22;37709;53.480;9.688;2023-08-31T05:16:33;9.40;99.90
2407;DHT22;37709;53.480;9.688;2023-08-31T05:19:02;9.50;99.90
2407;DHT22;37709;53.480;9.688;2023-08-31T05:21:33;9.50;99.90
2407;DHT22;37709;53.480;9.688;2023-08-31T05:24:05;9.50;99.90
2407;DHT22;37709;53.480;9.688;2023-08-31T05:26:32;9.60;99.90
2407;DHT22;37709;53.480;9.688;2023-08-31T05:28:59;9.60;99.90
2407;DHT22;37709;53.480;9.688;2023-08-31T05:31:32;9.70;99.90
2407;DHT22;37709;53.480;9.688;2023-08-31T05:34:01;9.80;99.90
2407;DHT22;37709;53.480;9.688;2023-08-31T05:36:29;9.80;99.90
2407;DHT22;37709;53.480;9.688;2023-08-31T05:38:58;9.90;99.90
2407;DHT22;37709;53.480;9.688;2023-08-31T05:41:27;9.90;99.90
2407;DHT22;37709;53.480;9.688;2023-08-31T05:43:56;10.00;99.90
2407;DHT22;37709;53.480;9.688;2023-08-31T05:46:27;10.20;99.90
2407;DHT22;37709;53.480;9.688;2023-08-31T05:49:20;10.40;99.90
2407;DHT22;37709;53.480;9.688;2023-08-31T05:51:47;10.70;99.90
2407;DHT22;37709;53.480;9.688;2023-08-31T05:54:19;11.00;99.90
2407;DHT22;37709;53.480;9.688;2023-08-31T05:56:48;11.20;99.90
2407;DHT22;37709;53.480;9.688;2023-08-31T05:59:15;11.40;99.90
2407;DHT22;37709;53.480;9.688;2023-08-31T06:01:43;11.60;99.90
2407;DHT22;37709;53.480;9.688;2023-08-31T06:04:11;11.60;99.90
2407;DHT22;37709;53.480;9.688;2023-08-31T06:06:41;11.50;99.90
2407;DHT22;37709;53.480;9.688;2023-08-31T06:09:12;11.40;99.90
2407;DHT22;37709;53.480;9.688;2023-08-31T06:11:40;11.30;99.90
2407;DHT22;37709;53.480;9.688;2023-08-31T06:14:08;11.10;99.90
2407;DHT22;37709;53.480;9.688;2023-08-31T06:16:36;11.10;99.90
2407;DHT22;37709;53.480;9.688;2023-08-31T06:19:09;11.10;99.90
2407;DHT22;37709;53.480;9.688;2023-08-31T06:21:39;11.20;99.90
2407;DHT22;37709;53.480;9.688;2023-08-31T06:24:10;11.20;99.90
2407;DHT22;37709;53.480;9.688;2023-08-31T06:27:05;11.30;99.90
2407;DHT22;37709;53.480;9.688;2023-08-31T06:29:34;11.40;99.90
2407;DHT22;37709;53.480;9.688;2023-08-31T06:32:02;11.50;99.90
2407;DHT22;37709;53.480;9.688;2023-08-31T06:34:32;11.60;99.90
2407;DHT22;37709;53.480;9.688;2023-08-31T06:37:00;11.70;99.90
2407;DHT22;37709;53.480;9.688;2023-08-31T06:39:28;11.90;99.90
2407;DHT22;37709;53.480;9.688;2023-08-31T06:41:57;12.20;99.90
2407;DHT22;37709;53.480;9.688;2023-08-31T06:44:30;12.90;99.90
2407;DHT22;37709;53.480;9.688;2023-08-31T06:46:59;14.00;99.90
2407;DHT22;37709;53.480;9.688;2023-08-31T06:49:29;15.20;99.90
2407;DHT22;37709;53.480;9.688;2023-08-31T06:52:02;16.50;99.90
2407;DHT22;37709;53.480;9.688;2023-08-31T06:54:48;17.80;99.90
2407;DHT22;37709;53.480;9.688;2023-08-31T06:57:15;19.00;99.90
2407;DHT22;37709;53.480;9.688;2023-08-31T06:59:48;19.90;99.90
2407;DHT22;37709;53.480;9.688;2023-08-31T07:02:17;20.50;99.90
2407;DHT22;37709;53.480;9.688;2023-08-31T07:04:47;20.80;99.90
2407;DHT22;37709;53.480;9.688;2023-08-31T07:07:15;21.20;99.90
2407;DHT22;37709;53.480;9.688;2023-08-31T07:09:43;21.40;99.90
2407;DHT22;37709;53.480;9.688;2023-08-31T07:12:11;21.70;99.90
2407;DHT22;37709;53.480;9.688;2023-08-31T07:14:40;22.20;99.90
2407;DHT22;37709;53.480;9.688;2023-08-31T07:17:07;22.80;99.90
2407;DHT22;37709;53.480;9.688;2023-08-31T07:19:36;23.00;99.90
2407;DHT22;37709;53.480;9.688;2023-08-31T07:22:06;23.40;99.90
2407;DHT22;37709;53.480;9.688;2023-08-31T07:24:33;23.40;99.90
2407;DHT22;37709;53.480;9.688;2023-08-31T07:27:04;23.70;99.90
2407;DHT22;37709;53.480;9.688;2023-08-31T07:29:33;23.70;99.90
2407;DHT22;37709;53.480;9.688;2023-08-31T07:32:02;24.20;99.90
2407;DHT22;37709;53.480;9.688;2023-08-31T07:34:34;24.80;99.90
2407;DHT22;37709;53.480;9.688;2023-08-31T07:37:03;25.20;99.90
2407;DHT22;37709;53.480;9.688;2023-08-31T07:39:33;25.30;99.90
2407;DHT22;37709;53.480;9.688;2023-08-31T07:42:01;25.30;99.90
2407;DHT22;37709;53.480;9.688;2023-08-31T07:44:33;25.50;99.90
2407;DHT22;37709;53.480;9.688;2023-08-31T07:47:01;25.10;99.90
2407;DHT22;37709;53.480;9.688;2023-08-31T07:49:31;25.00;99.90
2407;DHT22;37709;53.480;9.688;2023-08-31T07:51:59;25.30;99.90
2407;DHT22;37709;53.480;9.688;2023-08-31T07:54:27;25.80;99.90
2407;DHT22;37709;53.480;9.688;2023-08-31T07:56:54;26.00;99.90
2407;DHT22;37709;53.480;9.688;2023-08-31T07:59:27;26.70;99.90
2407;DHT22;37709;53.480;9.688;2023-08-31T08:01:56;26.70;99.90
2407;DHT22;37709;53.480;9.688;2023-08-31T08:04:24;27.10;98.90
2407;DHT22;37709;53.480;9.688;2023-08-31T08:06:53;26.80;99.00
2407;DHT22;37709;53.480;9.688;2023-08-31T08:09:23;27.90;99.90
2407;DHT22;37709;53.480;9.688;2023-08-31T08:11:54;26.30;97.30
2407;DHT22;37709;53.480;9.688;2023-08-31T08:14:25;25.80;98.20
2407;DHT22;37709;53.480;9.688;2023-08-31T08:16:52;27.20;97.30
2407;DHT22;37709;53.480;9.688;2023-08-31T08:19:23;27.80;95.30
2407;DHT22;37709;53.480;9.688;2023-08-31T08:21:54;26.50;97.50
2407;DHT22;37709;53.480;9.688;2023-08-31T08:24:25;26.10;96.60
2407;DHT22;37709;53.480;9.688;2023-08-31T08:26:52;23.70;97.20
2407;DHT22;37709;53.480;9.688;2023-08-31T08:29:21;21.70;99.50
2407;DHT22;37709;53.480;9.688;2023-08-31T08:31:50;21.30;99.90
2407;DHT22;37709;53.480;9.688;2023-08-31T08:34:18;21.40;99.90
2407;DHT22;37709;53.480;9.688;2023-08-31T08:36:47;22.10;99.90
2407;DHT22;37709;53.480;9.688;2023-08-31T08:39:15;21.10;99.90
2407;DHT22;37709;53.480;9.688;2023-08-31T08:41:43;20.80;99.90
2407;DHT22;37709;53.480;9.688;2023-08-31T08:44:16;21.30;99.90
2407;DHT22;37709;53.480;9.688;2023-08-31T08:46:48;22.20;99.90
2407;DHT22;37709;53.480;9.688;2023-08-31T08:49:17;21.40;99.90
2407;DHT22;37709;53.480;9.688;2023-08-31T08:51:47;20.90;99.90
2407;DHT22;37709;53.480;9.688;2023-08-31T08:54:41;20.70;99.90
2407;DHT22;37709;53.480;9.688;2023-08-31T08:57:12;20.50;99.90
2407;DHT22;37709;53.480;9.688;2023-08-31T08:59:40;19.60;99.90
2407;DHT22;37709;53.480;9.688;2023-08-31T09:02:10;19.00;99.90
2407;DHT22;37709;53.480;9.688;2023-08-31T09:04:39;22.70;99.90
2407;DHT22;37709;53.480;9.688;2023-08-31T09:07:11;27.10;98.00
2407;DHT22;37709;53.480;9.688;2023-08-31T09:09:49;29.50;93.60
2407;DHT22;37709;53.480;9.688;2023-08-31T09:12:18;26.70;93.40
2407;DHT22;37709;53.480;9.688;2023-08-31T09:15:01;24.30;95.70
2407;DHT22;37709;53.480;9.688;2023-08-31T09:17:38;22.40;97.10
2407;DHT22;37709;53.480;9.688;2023-08-31T09:20:06;21.70;98.80
2407;DHT22;37709;53.480;9.688;2023-08-31T09:22:36;22.10;99.20
2407;DHT22;37709;53.480;9.688;2023-08-31T09:25:10;23.60;98.90
2407;DHT22;37709;53.480;9.688;2023-08-31T09:27:39;26.20;96.40
2407;DHT22;37709;53.480;9.688;2023-08-31T09:30:11;26.60;95.80
2407;DHT22;37709;53.480;9.688;2023-08-31T09:32:39;28.60;93.70
2407;DHT22;37709;53.480;9.688;2023-08-31T09:35:11;30.20;91.90
2407;DHT22;37709;53.480;9.688;2023-08-31T09:37:57;31.20;86.80
2407;DHT22;37709;53.480;9.688;2023-08-31T09:40:29;29.10;87.40
2407;DHT22;37709;53.480;9.688;2023-08-31T09:42:56;27.90;89.80
2407;DHT22;37709;53.480;9.688;2023-08-31T09:45:31;28.00;90.10
2407;DHT22;37709;53.480;9.688;2023-08-31T09:48:13;27.20;91.10
2407;DHT22;37709;53.480;9.688;2023-08-31T09:50:46;30.50;86.90
2407;DHT22;37709;53.480;9.688;2023-08-31T09:53:16;31.60;81.30
2407;DHT22;37709;53.480;9.688;2023-08-31T09:55:48;30.70;81.60
2407;DHT22;37709;53.480;9.688;2023-08-31T09:58:42;28.00;84.50
2407;DHT22;37709;53.480;9.688;2023-08-31T10:01:10;26.80;88.90
2407;DHT22;37709;53.480;9.688;2023-08-31T10:03:56;28.40;86.70
2407;DHT22;37709;53.480;9.688;2023-08-31T10:06:24;29.20;82.90
2407;DHT22;37709;53.480;9.688;2023-08-31T10:08:54;29.70;83.10
2407;DHT22;37709;53.480;9.688;2023-08-31T10:11:26;30.70;81.10
2407;DHT22;37709;53.480;9.688;2023-08-31T10:13:58;33.10;76.40
2407;DHT22;37709;53.480;9.688;2023-08-31T10:16:27;34.70;73.90
2407;DHT22;37709;53.480;9.688;2023-08-31T10:18:58;33.90;69.20
2407;DHT22;37709;53.480;9.688;2023-08-31T10:21:26;35.70;66.20
2407;DHT22;37709;53.480;9.688;2023-08-31T10:23:54;33.50;66.70
2407;DHT22;37709;53.480;9.688;2023-08-31T10:26:48;32.10;69.90
2407;DHT22;37709;53.480;9.688;2023-08-31T10:29:42;32.20;70.00
2407;DHT22;37709;53.480;9.688;2023-08-31T10:32:19;32.20;66.90
2407;DHT22;37709;53.480;9.688;2023-08-31T10:35:04;32.70;68.70
2407;DHT22;37709;53.480;9.688;2023-08-31T10:37:31;32.50;66.90
2407;DHT22;37709;53.480;9.688;2023-08-31T10:40:10;33.50;65.20
2407;DHT22;37709;53.480;9.688;2023-08-31T10:42:47;34.30;63.00
2407;DHT22;37709;53.480;9.688;2023-08-31T10:45:45;30.80;66.20
2407;DHT22;37709;53.480;9.688;2023-08-31T10:48:14;33.50;66.60
2407;DHT22;37709;53.480;9.688;2023-08-31T10:50:47;33.80;65.70
2407;DHT22;37709;53.480;9.688;2023-08-31T10:53:28;36.70;60.20
2407;DHT22;37709;53.480;9.688;2023-08-31T10:55:55;37.20;58.50
2407;DHT22;37709;53.480;9.688;2023-08-31T10:58:32;37.70;57.50
2407;DHT22;37709;53.480;9.688;2023-08-31T11:01:00;37.90;58.10
2407;DHT22;37709;53.480;9.688;2023-08-31T11:03:29;38.80;54.10
2407;DHT22;37709;53.480;9.688;2023-08-31T11:05:57;38.70;53.40
2407;DHT22;37709;53.480;9.688;2023-08-31T11:08:25;40.00;51.00
2407;DHT22;37709;53.480;9.688;2023-08-31T11:10:53;40.50;49.20
2407;DHT22;37709;53.480;9.688;2023-08-31T11:13:23;39.00;50.10
2407;DHT22;37709;53.480;9.688;2023-08-31T11:15:51;35.80;52.50
2407;DHT22;37709;53.480;9.688;2023-08-31T11:18:20;36.40;52.80
2407;DHT22;37709;53.480;9.688;2023-08-31T11:20:48;38.10;50.00
2407;DHT22;37709;53.480;9.688;2023-08-31T11:23:40;36.00;52.50
2407;DHT22;37709;53.480;9.688;2023-08-31T11:26:11;37.60;50.10
2407;DHT22;37709;53.480;9.688;2023-08-31T11:28:39;39.70;49.80
2407;DHT22;37709;53.480;9.688;2023-08-31T11:31:12;40.30;47.60
2407;DHT22;37709;53.480;9.688;2023-08-31T11:33:41;39.40;48.20
2407;DHT22;37709;53.480;9.688;2023-08-31T11:36:35;41.30;45.80
2407;DHT22;37709;53.480;9.688;2023-08-31T11:39:11;42.20;44.30
2407;DHT22;37709;53.480;9.688;2023-08-31T11:41:42;41.20;42.90
2407;DHT22;37709;53.480;9.688;2023-08-31T11:44:36;40.00;44.10
2407;DHT22;37709;53.480;9.688;2023-08-31T11:47:04;36.20;47.00
2407;DHT22;37709;53.480;9.688;2023-08-31T11:49:57;32.70;50.50
2407;DHT22;37709;53.480;9.688;2023-08-31T11:52:51;31.80;51.50
2407;DHT22;37709;53.480;9.688;2023-08-31T11:55:23;30.10;55.20
2407;DHT22;37709;53.480;9.688;2023-08-31T11:57:51;32.00;53.90
2407;DHT22;37709;53.480;9.688;2023-08-31T12:00:22;32.50;52.70
2407;DHT22;37709;53.480;9.688;2023-08-31T12:02:58;31.30;54.70
2407;DHT22;37709;53.480;9.688;2023-08-31T12:05:28;30.20;54.00
2407;DHT22;37709;53.480;9.688;2023-08-31T12:07:58;28.90;55.40
2407;DHT22;37709;53.480;9.688;2023-08-31T12:10:26;28.40;57.40
2407;DHT22;37709;53.480;9.688;2023-08-31T12:13:08;28.00;58.50
2407;DHT22;37709;53.480;9.688;2023-08-31T12:15:41;27.50;59.60
2407;DHT22;37709;53.480;9.688;2023-08-31T12:18:14;26.80;61.20
2407;DHT22;37709;53.480;9.688;2023-08-31T12:20:47;26.70;62.40
2407;DHT22;37709;53.480;9.688;2023-08-31T12:23:15;26.00;63.40
2407;DHT22;37709;53.480;9.688;2023-08-31T12:25:48;25.00;63.20
2407;DHT22;37709;53.480;9.688;2023-08-31T12:28:17;24.20;63.00
2407;DHT22;37709;53.480;9.688;2023-08-31T12:30:49;23.30;63.40
2407;DHT22;37709;53.480;9.688;2023-08-31T12:33:22;22.80;64.00
2407;DHT22;37709;53.480;9.688;2023-08-31T12:35:53;22.40;64.40
2407;DHT22;37709;53.480;9.688;2023-08-31T12:38:21;21.80;69.50
2407;DHT22;37709;53.480;9.688;2023-08-31T12:41:13;20.80;80.50
2407;DHT22;37709;53.480;9.688;2023-08-31T12:43:41;19.40;92.50
2407;DHT22;37709;53.480;9.688;2023-08-31T12:46:08;18.70;96.90
2407;DHT22;37709;53.480;9.688;2023-08-31T12:48:39;18.40;99.90
2407;DHT22;37709;53.480;9.688;2023-08-31T12:51:06;17.80;99.90
2407;DHT22;37709;53.480;9.688;2023-08-31T12:53:38;17.20;99.90
2407;DHT22;37709;53.480;9.688;2023-08-31T12:56:09;17.00;99.90
2407;DHT22;37709;53.480;9.688;2023-08-31T12:58:38;17.50;99.90
2407;DHT22;37709;53.480;9.688;2023-08-31T13:01:06;19.10;99.90
2407;DHT22;37709;53.480;9.688;2023-08-31T13:03:39;20.80;99.90
2407;DHT22;37709;53.480;9.688;2023-08-31T13:06:08;23.10;99.90
2407;DHT22;37709;53.480;9.688;2023-08-31T13:08:36;25.20;96.40
2407;DHT22;37709;53.480;9.688;2023-08-31T13:11:03;26.80;95.80
2407;DHT22;37709;53.480;9.688;2023-08-31T13:13:33;27.10;94.00
2407;DHT22;37709;53.480;9.688;2023-08-31T13:16:02;27.60;94.20
2407;DHT22;37709;53.480;9.688;2023-08-31T13:18:32;28.70;93.30
2407;DHT22;37709;53.480;9.688;2023-08-31T13:21:00;30.30;91.50
2407;DHT22;37709;53.480;9.688;2023-08-31T13:23:28;31.10;81.80
2407;DHT22;37709;53.480;9.688;2023-08-31T13:26:21;31.00;79.10
2407;DHT22;37709;53.480;9.688;2023-08-31T13:28:51;30.60;78.10
2407;DHT22;37709;53.480;9.688;2023-08-31T13:31:19;29.90;85.30
2407;DHT22;37709;53.480;9.688;2023-08-31T13:33:47;30.00;81.10
2407;DHT22;37709;53.480;9.688;2023-08-31T13:36:14;29.50;83.50
2407;DHT22;37709;53.480;9.688;2023-08-31T13:38:42;29.60;81.20
2407;DHT22;37709;53.480;9.688;2023-08-31T13:41:10;30.20;76.30
2407;DHT22;37709;53.480;9.688;2023-08-31T13:43:38;30.00;80.30
2407;DHT22;37709;53.480;9.688;2023-08-31T13:46:06;30.00;74.40
2407;DHT22;37709;53.480;9.688;2023-08-31T13:48:38;31.30;70.70
2407;DHT22;37709;53.480;9.688;2023-08-31T13:51:07;31.60;68.60
2407;DHT22;37709;53.480;9.688;2023-08-31T13:53:37;31.70;67.20
2407;DHT22;37709;53.480;9.688;2023-08-31T13:56:08;32.00;67.10
2407;DHT22;37709;53.480;9.688;2023-08-31T13:58:35;31.90;66.40
2407;DHT22;37709;53.480;9.688;2023-08-31T14:01:07;32.20;66.10
2407;DHT22;37709;53.480;9.688;2023-08-31T14:03:36;33.60;63.70
2407;DHT22;37709;53.480;9.688;2023-08-31T14:06:05;33.60;62.70
2407;DHT22;37709;53.480;9.688;2023-08-31T14:08:33;33.00;61.00
2407;DHT22;37709;53.480;9.688;2023-08-31T14:11:04;32.10;62.90
2407;DHT22;37709;53.480;9.688;2023-08-31T14:13:36;32.30;62.00
2407;DHT22;37709;53.480;9.688;2023-08-31T14:16:03;32.40;62.30
2407;DHT22;37709;53.480;9.688;2023-08-31T14:18:31;32.80;61.60
2407;DHT22;37709;53.480;9.688;2023-08-31T14:21:02;33.10;60.80
2407;DHT22;37709;53.480;9.688;2023-08-31T14:23:34;33.00;60.30
2407;DHT22;37709;53.480;9.688;2023-08-31T14:26:04;31.10;63.00
2407;DHT22;37709;53.480;9.688;2023-08-31T14:28:32;31.60;63.60
2407;DHT22;37709;53.480;9.688;2023-08-31T14:31:05;32.30;63.40
2407;DHT22;37709;53.480;9.688;2023-08-31T14:33:33;32.60;60.90
2407;DHT22;37709;53.480;9.688;2023-08-31T14:36:03;32.20;60.70
2407;DHT22;37709;53.480;9.688;2023-08-31T14:38:56;31.50;61.50
2407;DHT22;37709;53.480;9.688;2023-08-31T14:41:52;31.40;60.50
2407;DHT22;37709;53.480;9.688;2023-08-31T14:44:21;30.30;61.60
2407;DHT22;37709;53.480;9.688;2023-08-31T14:46:52;28.30;64.40
2407;DHT22;37709;53.480;9.688;2023-08-31T14:49:24;29.30;63.60
2407;DHT22;37709;53.480;9.688;2023-08-31T14:51:55;29.60;64.60
2407;DHT22;37709;53.480;9.688;2023-08-31T14:54:26;28.80;65.40
2407;DHT22;37709;53.480;9.688;2023-08-31T14:57:20;29.40;65.70
2407;DHT22;37709;53.480;9.688;2023-08-31T14:59:49;27.10;68.60
2407;DHT22;37709;53.480;9.688;2023-08-31T15:02:22;26.20;69.80
2407;DHT22;37709;53.480;9.688;2023-08-31T15:04:50;24.40;72.60
2407;DHT22;37709;53.480;9.688;2023-08-31T15:07:19;23.50;75.90
2407;DHT22;37709;53.480;9.688;2023-08-31T15:09:52;24.20;73.90
2407;DHT22;37709;53.480;9.688;2023-08-31T15:12:20;24.20;75.90
2407;DHT22;37709;53.480;9.688;2023-08-31T15:14:51;24.10;75.60
2407;DHT22;37709;53.480;9.688;2023-08-31T15:17:19;24.10;76.80
2407;DHT22;37709;53.480;9.688;2023-08-31T15:19:47;25.20;75.00
2407;DHT22;37709;53.480;9.688;2023-08-31T15:22:15;25.90;73.90
2407;DHT22;37709;53.480;9.688;2023-08-31T15:24:45;26.60;72.30
2407;DHT22;37709;53.480;9.688;2023-08-31T15:27:38;26.10;72.20
2407;DHT22;37709;53.480;9.688;2023-08-31T15:30:08;26.50;71.70
2407;DHT22;37709;53.480;9.688;2023-08-31T15:32:36;26.50;72.40
2407;DHT22;37709;53.480;9.688;2023-08-31T15:35:05;26.00;72.20
2407;DHT22;37709;53.480;9.688;2023-08-31T15:37:32;25.60;73.40
2407;DHT22;37709;53.480;9.688;2023-08-31T15:40:00;25.30;73.80
2407;DHT22;37709;53.480;9.688;2023-08-31T15:42:29;24.80;75.30
2407;DHT22;37709;53.480;9.688;2023-08-31T15:44:57;24.00;75.90
2407;DHT22;37709;53.480;9.688;2023-08-31T15:47:24;22.60;79.40
2407;DHT22;37709;53.480;9.688;2023-08-31T15:49:52;21.40;82.00
2407;DHT22;37709;53.480;9.688;2023-08-31T15:52:23;20.90;84.50
2407;DHT22;37709;53.480;9.688;2023-08-31T15:54:52;20.70;85.30
2407;DHT22;37709;53.480;9.688;2023-08-31T15:57:26;21.10;85.70
2407;DHT22;37709;53.480;9.688;2023-08-31T15:59:58;21.70;85.20
2407;DHT22;37709;53.480;9.688;2023-08-31T16:02:26;22.10;84.90
2407;DHT22;37709;53.480;9.688;2023-08-31T16:05:04;22.10;83.50
2407;DHT22;37709;53.480;9.688;2023-08-31T16:08:01;21.90;84.00
2407;DHT22;37709;53.480;9.688;2023-08-31T16:10:31;21.40;86.30
2407;DHT22;37709;53.480;9.688;2023-08-31T16:12:59;20.90;87.40
2407;DHT22;37709;53.480;9.688;2023-08-31T16:15:27;20.00;88.80
2407;DHT22;37709;53.480;9.688;2023-08-31T16:17:58;19.30;90.40
2407;DHT22;37709;53.480;9.688;2023-08-31T16:20:27;19.30;91.30
2407;DHT22;37709;53.480;9.688;2023-08-31T16:22:54;19.20;91.80